sensor_id;sensor_type;location;lat;lon;timestamp;pressure;altitude;pressure_sealevel;temperature;humidity
21658;BME280;10990;48.174;9.782;2022-12-18T07:54:53;94173.19;;;-5.09;100.00
21658;BME280;10990;48.174;9.782;2022-12-18T07:57:21;94165.91;;;-5.03;100.00
21658;BME280;10990;48.174;9.782;2022-12-18T07:59:47;94192.69;;;-5.05;100.00
21658;BME280;10990;48.174;9.782;2022-12-18T08:02:14;94193.25;;;-5.00;100.00
21658;BME280;10990;48.174;9.782;2022-12-18T08:04:41;94207.59;;;-5.10;100.00
21658;BME280;10990;48.174;9.782;2022-12-18T08:07:07;94239.81;;;-5.18;100.00
21658;BME280;10990;48.174;9.782;2022-12-18T08:09:34;94268.69;;;-5.27;100.00
21658;BME280;10990;48.174;9.782;2022-12-18T08:12:03;94251.22;;;-5.07;100.00
21658;BME280;10990;48.174;9.782;2022-12-18T08:14:30;94254.09;;;-4.98;100.00
21658;BME280;10990;48.174;9.782;2022-12-18T08:16:56;94262.72;;;-4.99;100.00
21658;BME280;10990;48.174;9.782;2022-12-18T08:19:23;94264.31;;;-4.96;100.00
21658;BME280;10990;48.174;9.782;2022-12-18T08:21:50;94287.31;;;-5.07;100.00
21658;BME280;10990;48.174;9.782;2022-12-18T08:24:17;94283.56;;;-4.87;100.00
21658;BME280;10990;48.174;9.782;2022-12-18T08:26:43;94329.66;;;-5.42;100.00
21658;BME280;10990;48.174;9.782;2022-12-18T08:29:12;94325.75;;;-5.19;100.00
21658;BME280;10990;48.174;9.782;2022-12-18T08:31:38;94325.25;;;-5.09;100.00
21658;BME280;10990;48.174;9.782;2022-12-18T08:34:05;94315.44;;;-4.88;100.00
21658;BME280;10990;48.174;9.782;2022-12-18T08:36:32;94315.16;;;-4.84;100.00
21658;BME280;10990;48.174;9.782;2022-12-18T08:38:58;94334.84;;;-4.97;100.00
21658;BME280;10990;48.174;9.782;2022-12-18T08:41:25;94323.72;;;-4.83;100.00
21658;BME280;10990;48.174;9.782;2022-12-18T08:43:52;94311.59;;;-4.67;100.00
21658;BME280;10990;48.174;9.782;2022-12-18T08:46:39;94297.50;;;-4.47;100.00
21658;BME280;10990;48.174;9.782;2022-12-18T08:49:07;94316.19;;;-4.58;100.00
21658;BME280;10990;48.174;9.782;2022-12-18T08:51:34;94349.59;;;-4.70;100.00
21658;BME280;10990;48.174;9.782;2022-12-18T08:54:01;94331.03;;;-4.61;100.00
21658;BME280;10990;48.174;9.782;2022-12-18T08:56:28;94355.44;;;-4.67;100.00
21658;BME280;10990;48.174;9.782;2022-12-18T08:58:55;94364.63;;;-4.77;100.00
21658;BME280;10990;48.174;9.782;2022-12-18T09:01:22;94392.38;;;-4.97;100.00
21658;BME280;10990;48.174;9.782;2022-12-18T09:03:51;94391.56;;;-4.97;100.00
21658;BME280;10990;48.174;9.782;2022-12-18T09:06:19;94365.94;;;-4.70;100.00
21658;BME280;10990;48.174;9.782;2022-12-18T09:08:46;94385.63;;;-4.83;100.00
21658;BME280;10990;48.174;9.782;2022-12-18T09:11:14;94375.13;;;-4.66;100.00
21658;BME280;10990;48.174;9.782;2022-12-18T09:13:42;94364.19;;;-4.55;100.00
21658;BME280;10990;48.174;9.782;2022-12-18T09:16:09;94395.38;;;-4.74;100.00
21658;BME280;10990;48.174;9.782;2022-12-18T09:18:36;94397.22;;;-4.76;100.00
21658;BME280;10990;48.174;9.782;2022-12-18T09:21:09;94403.22;;;-4.76;100.00
21658;BME280;10990;48.174;9.782;2022-12-18T09:23:36;94404.69;;;-4.71;100.00
21658;BME280;10990;48.174;9.782;2022-12-18T09:26:03;94395.69;;;-4.64;100.00
21658;BME280;10990;48.174;9.782;2022-12-18T09:28:30;94411.69;;;-4.74;100.00
21658;BME280;10990;48.174;9.782;2022-12-18T09:30:57;94388.22;;;-4.55;100.00
21658;BME280;10990;48.174;9.782;2022-12-18T09:33:24;94380.81;;;-4.31;100.00
21658;BME280;10990;48.174;9.782;2022-12-18T09:35:51;94375.47;;;-4.28;100.00
21658;BME280;10990;48.174;9.782;2022-12-18T09:38:19;94383.47;;;-4.32;100.00
21658;BME280;10990;48.174;9.782;2022-12-18T09:40:48;94390.28;;;-4.31;100.00
21658;BME280;10990;48.174;9.782;2022-12-18T09:43:17;94394.16;;;-4.24;100.00
21658;BME280;10990;48.174;9.782;2022-12-18T09:45:49;94401.44;;;-4.16;100.00
21658;BME280;10990;48.174;9.782;2022-12-18T09:48:21;94413.44;;;-4.15;100.00
21658;BME280;10990;48.174;9.782;2022-12-18T09:50:50;94437.22;;;-4.24;100.00
21658;BME280;10990;48.174;9.782;2022-12-18T09:53:21;94439.50;;;-4.20;100.00
21658;BME280;10990;48.174;9.782;2022-12-18T09:55:49;94444.78;;;-4.21;100.00
21658;BME280;10990;48.174;9.782;2022-12-18T09:58:20;94448.53;;;-4.27;100.00
21658;BME280;10990;48.174;9.782;2022-12-18T10:00:51;94443.94;;;-4.22;100.00
21658;BME280;10990;48.174;9.782;2022-12-18T10:03:18;94452.06;;;-4.14;100.00
21658;BME280;10990;48.174;9.782;2022-12-18T10:05:54;94436.59;;;-3.99;100.00
21658;BME280;10990;48.174;9.782;2022-12-18T10:08:29;94442.47;;;-3.97;100.00
21658;BME280;10990;48.174;9.782;2022-12-18T10:11:20;94476.75;;;-4.24;100.00
21658;BME280;10990;48.174;9.782;2022-12-18T10:13:52;94517.94;;;-4.67;100.00
21658;BME280;10990;48.174;9.782;2022-12-18T10:16:27;94519.59;;;-4.66;100.00
21658;BME280;10990;48.174;9.782;2022-12-18T10:19:33;94521.69;;;-4.72;100.00
21658;BME280;10990;48.174;9.782;2022-12-18T10:22:11;94528.06;;;-4.64;100.00
21658;BME280;10990;48.174;9.782;2022-12-18T10:24:48;94528.81;;;-4.62;100.00
21658;BME280;10990;48.174;9.782;2022-12-18T10:27:23;94514.56;;;-4.53;100.00
21658;BME280;10990;48.174;9.782;2022-12-18T10:29:51;94497.56;;;-4.41;100.00
21658;BME280;10990;48.174;9.782;2022-12-18T10:32:19;94498.75;;;-4.47;100.00
21658;BME280;10990;48.174;9.782;2022-12-18T10:34:47;94509.56;;;-4.56;100.00
21658;BME280;10990;48.174;9.782;2022-12-18T10:37:16;94497.84;;;-4.32;100.00
21658;BME280;10990;48.174;9.782;2022-12-18T10:39:46;94530.31;;;-4.58;100.00
21658;BME280;10990;48.174;9.782;2022-12-18T10:42:17;94520.03;;;-4.43;100.00
21658;BME280;10990;48.174;9.782;2022-12-18T10:44:44;94515.09;;;-4.32;100.00
21658;BME280;10990;48.174;9.782;2022-12-18T10:47:14;94542.16;;;-4.39;100.00
21658;BME280;10990;48.174;9.782;2022-12-18T10:49:52;94537.69;;;-4.21;100.00
21658;BME280;10990;48.174;9.782;2022-12-18T10:52:21;94524.91;;;-3.94;100.00
21658;BME280;10990;48.174;9.782;2022-12-18T10:54:51;94540.97;;;-4.03;100.00
21658;BME280;10990;48.174;9.782;2022-12-18T10:57:33;94539.75;;;-3.98;100.00
21658;BME280;10990;48.174;9.782;2022-12-18T11:00:21;94543.09;;;-3.96;100.00
21658;BME280;10990;48.174;9.782;2022-12-18T11:02:48;94539.72;;;-3.82;100.00
21658;BME280;10990;48.174;9.782;2022-12-18T11:05:27;94559.72;;;-3.86;100.00
21658;BME280;10990;48.174;9.782;2022-12-18T11:07:54;94548.47;;;-3.70;100.00
21658;BME280;10990;48.174;9.782;2022-12-18T11:10:26;94575.13;;;-3.84;100.00
21658;BME280;10990;48.174;9.782;2022-12-18T11:12:54;94570.91;;;-3.71;100.00
21658;BME280;10990;48.174;9.782;2022-12-18T11:15:24;94569.59;;;-3.64;100.00
21658;BME280;10990;48.174;9.782;2022-12-18T11:17:53;94638.31;;;-4.36;100.00
21658;BME280;10990;48.174;9.782;2022-12-18T11:20:26;94636.63;;;-4.37;100.00
21658;BME280;10990;48.174;9.782;2022-12-18T11:22:58;94648.56;;;-4.50;100.00
21658;BME280;10990;48.174;9.782;2022-12-18T11:25:29;94635.22;;;-4.26;100.00
21658;BME280;10990;48.174;9.782;2022-12-18T11:27:59;94617.13;;;-4.11;100.00
21658;BME280;10990;48.174;9.782;2022-12-18T11:30:28;94645.06;;;-4.49;100.00
21658;BME280;10990;48.174;9.782;2022-12-18T11:33:04;94628.81;;;-4.19;100.00
21658;BME280;10990;48.174;9.782;2022-12-18T11:35:40;94635.22;;;-4.26;100.00
21658;BME280;10990;48.174;9.782;2022-12-18T11:38:16;94648.94;;;-4.26;100.00
21658;BME280;10990;48.174;9.782;2022-12-18T11:40:49;94651.88;;;-4.32;100.00
21658;BME280;10990;48.174;9.782;2022-12-18T11:43:23;94630.78;;;-3.94;100.00
21658;BME280;10990;48.174;9.782;2022-12-18T11:45:55;94631.72;;;-3.95;100.00
21658;BME280;10990;48.174;9.782;2022-12-18T11:48:26;94664.84;;;-4.34;100.00
21658;BME280;10990;48.174;9.782;2022-12-18T11:50:55;94641.66;;;-4.03;100.00
21658;BME280;10990;48.174;9.782;2022-12-18T11:53:23;94673.84;;;-4.57;100.00
21658;BME280;10990;48.174;9.782;2022-12-18T11:56:00;94657.72;;;-4.44;100.00
21658;BME280;10990;48.174;9.782;2022-12-18T11:58:42;94648.47;;;-4.33;100.00
21658;BME280;10990;48.174;9.782;2022-12-18T12:01:17;94649.81;;;-4.41;100.00
21658;BME280;10990;48.174;9.782;2022-12-18T12:04:08;94639.19;;;-4.21;100.00
21658;BME280;10990;48.174;9.782;2022-12-18T12:06:46;94670.38;;;-4.56;100.00
21658;BME280;10990;48.174;9.782;2022-12-18T12:09:25;94667.63;;;-4.53;100.00
21658;BME280;10990;48.174;9.782;2022-12-18T12:12:16;94641.72;;;-4.35;100.00
21658;BME280;10990;48.174;9.782;2022-12-18T12:14:55;94622.84;;;-4.06;100.00
21658;BME280;10990;48.174;9.782;2022-12-18T12:17:32;94630.28;;;-4.15;100.00
21658;BME280;10990;48.174;9.782;2022-12-18T12:20:08;94645.22;;;-4.36;100.00
21658;BME280;10990;48.174;9.782;2022-12-18T12:22:42;94650.81;;;-4.44;100.00
21658;BME280;10990;48.174;9.782;2022-12-18T12:25:21;94651.81;;;-4.31;100.00
21658;BME280;10990;48.174;9.782;2022-12-18T12:28:02;94655.63;;;-4.38;100.00
21658;BME280;10990;48.174;9.782;2022-12-18T12:30:41;94650.41;;;-4.36;100.00
21658;BME280;10990;48.174;9.782;2022-12-18T12:33:22;94638.38;;;-4.21;100.00
21658;BME280;10990;48.174;9.782;2022-12-18T12:35:59;94625.47;;;-3.91;100.00
21658;BME280;10990;48.174;9.782;2022-12-18T12:38:32;94646.41;;;-4.12;100.00
21658;BME280;10990;48.174;9.782;2022-12-18T12:41:03;94640.84;;;-4.04;100.00
21658;BME280;10990;48.174;9.782;2022-12-18T12:43:37;94645.41;;;-4.09;100.00
21658;BME280;10990;48.174;9.782;2022-12-18T12:46:06;94646.75;;;-4.02;100.00
21658;BME280;10990;48.174;9.782;2022-12-18T12:48:39;94645.88;;;-3.87;100.00
21658;BME280;10990;48.174;9.782;2022-12-18T12:51:12;94670.34;;;-4.08;100.00
21658;BME280;10990;48.174;9.782;2022-12-18T12:53:41;94682.50;;;-4.26;100.00
21658;BME280;10990;48.174;9.782;2022-12-18T12:56:10;94687.16;;;-4.17;100.00
21658;BME280;10990;48.174;9.782;2022-12-18T12:58:47;94673.25;;;-4.14;100.00
21658;BME280;10990;48.174;9.782;2022-12-18T13:01:24;94699.34;;;-4.35;100.00
21658;BME280;10990;48.174;9.782;2022-12-18T13:03:57;94708.81;;;-4.51;100.00
21658;BME280;10990;48.174;9.782;2022-12-18T13:06:38;94704.06;;;-4.43;100.00
21658;BME280;10990;48.174;9.782;2022-12-18T13:09:06;94692.94;;;-4.28;100.00
21658;BME280;10990;48.174;9.782;2022-12-18T13:11:38;94695.16;;;-4.37;100.00
21658;BME280;10990;48.174;9.782;2022-12-18T13:14:28;94683.91;;;-4.20;100.00
21658;BME280;10990;48.174;9.782;2022-12-18T13:17:24;94689.34;;;-4.25;100.00
21658;BME280;10990;48.174;9.782;2022-12-18T13:20:04;94682.50;;;-4.10;100.00
21658;BME280;10990;48.174;9.782;2022-12-18T13:22:35;94684.81;;;-4.06;100.00
21658;BME280;10990;48.174;9.782;2022-12-18T13:25:30;94707.50;;;-4.26;100.00
21658;BME280;10990;48.174;9.782;2022-12-18T13:28:09;94724.06;;;-4.46;100.00
21658;BME280;10990;48.174;9.782;2022-12-18T13:30:54;94725.53;;;-4.42;100.00
21658;BME280;10990;48.174;9.782;2022-12-18T13:33:45;94721.97;;;-4.40;100.00
21658;BME280;10990;48.174;9.782;2022-12-18T13:36:25;94721.56;;;-4.16;100.00
21658;BME280;10990;48.174;9.782;2022-12-18T13:39:23;94722.41;;;-4.16;100.00
21658;BME280;10990;48.174;9.782;2022-12-18T13:41:52;94721.47;;;-4.15;100.00
21658;BME280;10990;48.174;9.782;2022-12-18T13:44:26;94713.56;;;-4.12;100.00
21658;BME280;10990;48.174;9.782;2022-12-18T13:46:57;94697.56;;;-4.02;100.00
21658;BME280;10990;48.174;9.782;2022-12-18T13:49:26;94690.53;;;-3.85;100.00
21658;BME280;10990;48.174;9.782;2022-12-18T13:51:56;94723.38;;;-4.34;100.00
21658;BME280;10990;48.174;9.782;2022-12-18T13:54:28;94721.38;;;-4.29;100.00
21658;BME280;10990;48.174;9.782;2022-12-18T13:56:56;94734.72;;;-4.53;100.00
21658;BME280;10990;48.174;9.782;2022-12-18T13:59:24;94715.00;;;-4.22;100.00
21658;BME280;10990;48.174;9.782;2022-12-18T14:01:54;94754.31;;;-4.66;100.00
21658;BME280;10990;48.174;9.782;2022-12-18T14:04:27;94744.34;;;-4.56;100.00
21658;BME280;10990;48.174;9.782;2022-12-18T14:07:03;94718.63;;;-4.26;100.00
21658;BME280;10990;48.174;9.782;2022-12-18T14:09:34;94736.19;;;-4.48;100.00
21658;BME280;10990;48.174;9.782;2022-12-18T14:12:02;94736.19;;;-4.48;100.00
21658;BME280;10990;48.174;9.782;2022-12-18T14:14:48;94751.78;;;-4.83;100.00
21658;BME280;10990;48.174;9.782;2022-12-18T14:17:15;94753.56;;;-4.84;100.00
21658;BME280;10990;48.174;9.782;2022-12-18T14:19:46;94754.00;;;-4.76;100.00
21658;BME280;10990;48.174;9.782;2022-12-18T14:22:16;94758.63;;;-4.82;100.00
21658;BME280;10990;48.174;9.782;2022-12-18T14:24:43;94744.34;;;-4.72;100.00
21658;BME280;10990;48.174;9.782;2022-12-18T14:27:28;94752.50;;;-4.97;100.00
21658;BME280;10990;48.174;9.782;2022-12-18T14:29:55;94763.97;;;-5.03;100.00
21658;BME280;10990;48.174;9.782;2022-12-18T14:32:21;94739.72;;;-4.83;100.00
21658;BME280;10990;48.174;9.782;2022-12-18T14:34:51;94733.66;;;-4.82;100.00
21658;BME280;10990;48.174;9.782;2022-12-18T14:37:22;94715.22;;;-4.58;100.00
21658;BME280;10990;48.174;9.782;2022-12-18T14:39:56;94702.25;;;-4.41;100.00
21658;BME280;10990;48.174;9.782;2022-12-18T14:42:24;94703.56;;;-4.34;100.00
21658;BME280;10990;48.174;9.782;2022-12-18T14:47:54;94706.66;;;-4.43;100.00
21658;BME280;10990;48.174;9.782;2022-12-18T14:50:22;94730.28;;;-4.66;100.00
21658;BME280;10990;48.174;9.782;2022-12-18T14:52:49;94727.38;;;-4.60;100.00
21658;BME280;10990;48.174;9.782;2022-12-18T14:55:17;94716.47;;;-4.49;100.00
21658;BME280;10990;48.174;9.782;2022-12-18T14:57:44;94722.28;;;-4.62;100.00
21658;BME280;10990;48.174;9.782;2022-12-18T15:00:17;94754.09;;;-4.94;100.00
21658;BME280;10990;48.174;9.782;2022-12-18T15:02:46;94744.56;;;-4.92;100.00
21658;BME280;10990;48.174;9.782;2022-12-18T15:05:18;94728.09;;;-4.74;100.00
21658;BME280;10990;48.174;9.782;2022-12-18T15:07:47;94745.38;;;-4.92;100.00
21658;BME280;10990;48.174;9.782;2022-12-18T15:10:16;94738.63;;;-4.94;100.00
21658;BME280;10990;48.174;9.782;2022-12-18T15:12:44;94738.69;;;-4.96;100.00
21658;BME280;10990;48.174;9.782;2022-12-18T15:15:46;94736.16;;;-4.80;100.00
21658;BME280;10990;48.174;9.782;2022-12-18T15:18:14;94717.78;;;-4.74;100.00
21658;BME280;10990;48.174;9.782;2022-12-18T15:20:44;94724.31;;;-4.84;100.00
21658;BME280;10990;48.174;9.782;2022-12-18T15:23:18;94731.66;;;-4.92;100.00
21658;BME280;10990;48.174;9.782;2022-12-18T15:25:46;94721.09;;;-4.88;100.00
21658;BME280;10990;48.174;9.782;2022-12-18T15:28:19;94708.22;;;-4.72;100.00
21658;BME280;10990;48.174;9.782;2022-12-18T15:31:03;94706.38;;;-4.86;100.00
21658;BME280;10990;48.174;9.782;2022-12-18T15:33:32;94704.56;;;-4.84;100.00
21658;BME280;10990;48.174;9.782;2022-12-18T15:36:01;94709.78;;;-4.85;100.00
21658;BME280;10990;48.174;9.782;2022-12-18T15:38:30;94706.38;;;-4.86;100.00
21658;BME280;10990;48.174;9.782;2022-12-18T15:40:57;94712.53;;;-4.88;100.00
21658;BME280;10990;48.174;9.782;2022-12-18T15:43:25;94689.41;;;-4.74;100.00
21658;BME280;10990;48.174;9.782;2022-12-18T15:46:01;94694.47;;;-4.88;100.00
21658;BME280;10990;48.174;9.782;2022-12-18T15:48:29;94688.47;;;-4.73;100.00
21658;BME280;10990;48.174;9.782;2022-12-18T15:50:56;94688.00;;;-4.80;100.00
21658;BME280;10990;48.174;9.782;2022-12-18T15:53:25;94682.34;;;-4.70;100.00
21658;BME280;10990;48.174;9.782;2022-12-18T15:55:55;94681.44;;;-4.69;100.00
21658;BME280;10990;48.174;9.782;2022-12-18T15:58:40;94690.00;;;-4.69;100.00
21658;BME280;10990;48.174;9.782;2022-12-18T16:01:07;94694.66;;;-4.76;100.00
21658;BME280;10990;48.174;9.782;2022-12-18T16:03:35;94671.03;;;-4.52;100.00
21658;BME280;10990;48.174;9.782;2022-12-18T16:06:02;94678.69;;;-4.66;100.00
21658;BME280;10990;48.174;9.782;2022-12-18T16:08:29;94672.59;;;-4.65;100.00
21658;BME280;10990;48.174;9.782;2022-12-18T16:10:57;94675.53;;;-4.71;100.00
21658;BME280;10990;48.174;9.782;2022-12-18T16:13:24;94678.16;;;-4.73;100.00
21658;BME280;10990;48.174;9.782;2022-12-18T16:15:51;94685.25;;;-4.92;100.00
21658;BME280;10990;48.174;9.782;2022-12-18T16:18:18;94695.50;;;-5.08;100.00
21658;BME280;10990;48.174;9.782;2022-12-18T16:20:44;94677.50;;;-4.92;100.00
21658;BME280;10990;48.174;9.782;2022-12-18T16:23:11;94683.66;;;-4.95;100.00
21658;BME280;10990;48.174;9.782;2022-12-18T16:25:38;94677.81;;;-4.99;100.00
21658;BME280;10990;48.174;9.782;2022-12-18T16:28:06;94679.72;;;-5.02;100.00
21658;BME280;10990;48.174;9.782;2022-12-18T16:30:33;94689.69;;;-5.12;100.00
21658;BME280;10990;48.174;9.782;2022-12-18T16:32:59;94684.09;;;-5.20;100.00
21658;BME280;10990;48.174;9.782;2022-12-18T16:35:26;94683.44;;;-5.08;100.00
21658;BME280;10990;48.174;9.782;2022-12-18T16:37:53;94669.84;;;-4.94;100.00
21658;BME280;10990;48.174;9.782;2022-12-18T16:40:20;94673.50;;;-4.98;100.00
21658;BME280;10990;48.174;9.782;2022-12-18T16:42:47;94658.03;;;-4.82;100.00
21658;BME280;10990;48.174;9.782;2022-12-18T16:45:16;94659.47;;;-4.92;100.00
21658;BME280;10990;48.174;9.782;2022-12-18T16:47:44;94644.06;;;-4.78;100.00
21658;BME280;10990;48.174;9.782;2022-12-18T16:50:11;94640.50;;;-4.76;100.00
21658;BME280;10990;48.174;9.782;2022-12-18T16:52:39;94631.19;;;-4.78;100.00
21658;BME280;10990;48.174;9.782;2022-12-18T16:55:07;94630.19;;;-4.76;100.00
21658;BME280;10990;48.174;9.782;2022-12-18T16:57:34;94605.78;;;-4.54;100.00
21658;BME280;10990;48.174;9.782;2022-12-18T17:00:01;94599.72;;;-4.53;100.00
21658;BME280;10990;48.174;9.782;2022-12-18T17:02:29;94611.97;;;-4.72;100.00
21658;BME280;10990;48.174;9.782;2022-12-18T17:04:56;94620.75;;;-4.77;100.00
21658;BME280;10990;48.174;9.782;2022-12-18T17:07:23;94605.94;;;-4.57;100.00
21658;BME280;10990;48.174;9.782;2022-12-18T17:09:51;94609.28;;;-4.55;100.00
21658;BME280;10990;48.174;9.782;2022-12-18T17:12:18;94598.44;;;-4.46;100.00
21658;BME280;10990;48.174;9.782;2022-12-18T17:14:45;94608.47;;;-4.56;100.00
21658;BME280;10990;48.174;9.782;2022-12-18T17:17:12;94599.38;;;-4.47;100.00
21658;BME280;10990;48.174;9.782;2022-12-18T17:19:40;94615.97;;;-4.67;100.00
21658;BME280;10990;48.174;9.782;2022-12-18T17:22:06;94609.00;;;-4.51;100.00
21658;BME280;10990;48.174;9.782;2022-12-18T17:24:33;94601.38;;;-4.52;100.00
21658;BME280;10990;48.174;9.782;2022-12-18T17:27:00;94603.72;;;-4.47;100.00
21658;BME280;10990;48.174;9.782;2022-12-18T17:29:27;94602.84;;;-4.48;100.00
21658;BME280;10990;48.174;9.782;2022-12-18T17:31:54;94595.69;;;-4.43;100.00
21658;BME280;10990;48.174;9.782;2022-12-18T17:34:22;94581.19;;;-4.30;100.00
21658;BME280;10990;48.174;9.782;2022-12-18T17:36:50;94589.69;;;-4.43;100.00
21658;BME280;10990;48.174;9.782;2022-12-18T17:39:19;94596.88;;;-4.48;100.00
21658;BME280;10990;48.174;9.782;2022-12-18T17:41:46;94608.13;;;-4.49;100.00
21658;BME280;10990;48.174;9.782;2022-12-18T17:44:13;94618.69;;;-4.54;100.00
21658;BME280;10990;48.174;9.782;2022-12-18T17:46:41;94599.94;;;-4.42;100.00
21658;BME280;10990;48.174;9.782;2022-12-18T17:49:08;94592.09;;;-4.40;100.00
21658;BME280;10990;48.174;9.782;2022-12-18T17:51:35;94603.94;;;-4.52;100.00
21658;BME280;10990;48.174;9.782;2022-12-18T17:54:03;94601.19;;;-4.49;100.00
21658;BME280;10990;48.174;9.782;2022-12-18T17:56:30;94595.09;;;-4.48;100.00
21658;BME280;10990;48.174;9.782;2022-12-18T17:58:57;94603.13;;;-4.53;100.00
21658;BME280;10990;48.174;9.782;2022-12-18T18:01:25;94607.03;;;-4.61;100.00
21658;BME280;10990;48.174;9.782;2022-12-18T18:03:52;94595.38;;;-4.53;100.00
21658;BME280;10990;48.174;9.782;2022-12-18T18:06:20;94577.72;;;-4.44;100.00
21658;BME280;10990;48.174;9.782;2022-12-18T18:08:47;94587.38;;;-4.48;100.00
21658;BME280;10990;48.174;9.782;2022-12-18T18:11:17;94598.38;;;-4.60;100.00
21658;BME280;10990;48.174;9.782;2022-12-18T18:14:03;94616.59;;;-4.79;100.00
21658;BME280;10990;48.174;9.782;2022-12-18T18:16:33;94600.63;;;-4.54;100.00
21658;BME280;10990;48.174;9.782;2022-12-18T18:19:01;94596.97;;;-4.50;100.00
21658;BME280;10990;48.174;9.782;2022-12-18T18:21:29;94618.34;;;-4.80;100.00
21658;BME280;10990;48.174;9.782;2022-12-18T18:23:58;94628.25;;;-4.88;100.00
21658;BME280;10990;48.174;9.782;2022-12-18T18:26:28;94607.47;;;-4.69;100.00
21658;BME280;10990;48.174;9.782;2022-12-18T18:28:56;94597.28;;;-4.56;100.00
21658;BME280;10990;48.174;9.782;2022-12-18T18:31:25;94581.66;;;-4.53;100.00
21658;BME280;10990;48.174;9.782;2022-12-18T18:33:53;94569.72;;;-4.40;100.00
21658;BME280;10990;48.174;9.782;2022-12-18T18:36:22;94579.38;;;-4.43;100.00
21658;BME280;10990;48.174;9.782;2022-12-18T18:38:49;94569.63;;;-4.38;100.00
21658;BME280;10990;48.174;9.782;2022-12-18T18:41:17;94588.41;;;-4.66;100.00
21658;BME280;10990;48.174;9.782;2022-12-18T18:43:46;94582.16;;;-4.62;100.00
21658;BME280;10990;48.174;9.782;2022-12-18T18:46:14;94593.31;;;-4.78;100.00
21658;BME280;10990;48.174;9.782;2022-12-18T18:48:41;94591.31;;;-4.88;100.00
21658;BME280;10990;48.174;9.782;2022-12-18T18:51:10;94615.28;;;-4.86;100.00
21658;BME280;10990;48.174;9.782;2022-12-18T18:53:38;94608.97;;;-4.81;100.00
21658;BME280;10990;48.174;9.782;2022-12-18T18:56:07;94607.47;;;-4.69;100.00
21658;BME280;10990;48.174;9.782;2022-12-18T18:58:34;94599.47;;;-4.80;100.00
21658;BME280;10990;48.174;9.782;2022-12-18T19:01:04;94582.72;;;-4.73;100.00
21658;BME280;10990;48.174;9.782;2022-12-18T19:03:31;94577.91;;;-4.63;100.00
21658;BME280;10990;48.174;9.782;2022-12-18T19:05:59;94571.09;;;-4.64;100.00
21658;BME280;10990;48.174;9.782;2022-12-18T19:08:28;94566.53;;;-4.75;100.00
21658;BME280;10990;48.174;9.782;2022-12-18T19:10:57;94572.34;;;-4.87;100.00
21658;BME280;10990;48.174;9.782;2022-12-18T19:13:27;94567.28;;;-4.89;100.00
21658;BME280;10990;48.174;9.782;2022-12-18T19:15:55;94546.78;;;-4.76;100.00
21658;BME280;10990;48.174;9.782;2022-12-18T19:18:23;94555.81;;;-4.83;100.00
21658;BME280;10990;48.174;9.782;2022-12-18T19:20:54;94574.34;;;-5.08;100.00
21658;BME280;10990;48.174;9.782;2022-12-18T19:23:21;94568.03;;;-5.03;100.00
21658;BME280;10990;48.174;9.782;2022-12-18T19:25:48;94537.81;;;-4.69;100.00
21658;BME280;10990;48.174;9.782;2022-12-18T19:28:15;94537.81;;;-4.69;100.00
21658;BME280;10990;48.174;9.782;2022-12-18T19:30:42;94527.25;;;-4.64;100.00
21658;BME280;10990;48.174;9.782;2022-12-18T19:33:09;94530.47;;;-4.61;100.00
21658;BME280;10990;48.174;9.782;2022-12-18T19:35:39;94533.88;;;-4.60;100.00
21658;BME280;10990;48.174;9.782;2022-12-18T19:38:05;94544.44;;;-4.65;100.00
21658;BME280;10990;48.174;9.782;2022-12-18T19:40:32;94552.19;;;-4.65;100.00
21658;BME280;10990;48.174;9.782;2022-12-18T19:42:59;94544.44;;;-4.49;100.00
21658;BME280;10990;48.174;9.782;2022-12-18T19:45:26;94549.84;;;-4.54;100.00
21658;BME280;10990;48.174;9.782;2022-12-18T19:47:53;94552.19;;;-4.65;100.00
21658;BME280;10990;48.174;9.782;2022-12-18T19:50:20;94545.53;;;-4.53;100.00
21658;BME280;10990;48.174;9.782;2022-12-18T19:52:48;94563.28;;;-4.79;100.00
21658;BME280;10990;48.174;9.782;2022-12-18T19:55:15;94561.84;;;-4.84;100.00
21658;BME280;10990;48.174;9.782;2022-12-18T19:57:42;94565.13;;;-4.81;100.00
21658;BME280;10990;48.174;9.782;2022-12-18T20:00:10;94557.34;;;-4.65;100.00
21658;BME280;10990;48.174;9.782;2022-12-18T20:02:37;94549.78;;;-4.68;100.00
21658;BME280;10990;48.174;9.782;2022-12-18T20:05:06;94534.63;;;-4.58;100.00
21658;BME280;10990;48.174;9.782;2022-12-18T20:07:34;94532.41;;;-4.64;100.00
21658;BME280;10990;48.174;9.782;2022-12-18T20:10:04;94529.66;;;-4.61;100.00
21658;BME280;10990;48.174;9.782;2022-12-18T20:12:31;94524.16;;;-4.55;100.00
21658;BME280;10990;48.174;9.782;2022-12-18T20:14:58;94528.88;;;-4.47;100.00
21658;BME280;10990;48.174;9.782;2022-12-18T20:17:24;94529.94;;;-4.52;100.00
21658;BME280;10990;48.174;9.782;2022-12-18T20:19:51;94553.63;;;-4.75;100.00
21658;BME280;10990;48.174;9.782;2022-12-18T20:22:18;94528.72;;;-4.60;100.00
21658;BME280;10990;48.174;9.782;2022-12-18T20:24:44;94526.78;;;-4.57;100.00
21658;BME280;10990;48.174;9.782;2022-12-18T20:27:13;94539.47;;;-4.68;100.00
21658;BME280;10990;48.174;9.782;2022-12-18T20:29:39;94533.88;;;-4.60;100.00
21658;BME280;10990;48.174;9.782;2022-12-18T20:32:07;94524.09;;;-4.69;100.00
21658;BME280;10990;48.174;9.782;2022-12-18T20:34:35;94520.25;;;-4.62;100.00
21658;BME280;10990;48.174;9.782;2022-12-18T20:37:01;94523.63;;;-4.62;100.00
21658;BME280;10990;48.174;9.782;2022-12-18T20:39:28;94537.47;;;-4.79;100.00
21658;BME280;10990;48.174;9.782;2022-12-18T20:41:55;94537.72;;;-4.67;100.00
21658;BME280;10990;48.174;9.782;2022-12-18T20:44:23;94534.75;;;-4.76;100.00
21658;BME280;10990;48.174;9.782;2022-12-18T20:46:51;94524.91;;;-4.69;100.00
21658;BME280;10990;48.174;9.782;2022-12-18T20:49:18;94527.09;;;-4.77;100.00
21658;BME280;10990;48.174;9.782;2022-12-18T20:51:49;94508.28;;;-4.79;100.00
21658;BME280;10990;48.174;9.782;2022-12-18T20:54:18;94491.63;;;-4.74;100.00
21658;BME280;10990;48.174;9.782;2022-12-18T20:56:44;94495.16;;;-4.75;100.00
21658;BME280;10990;48.174;9.782;2022-12-18T20:59:11;94485.59;;;-4.72;100.00
21658;BME280;10990;48.174;9.782;2022-12-18T21:01:39;94469.97;;;-4.55;100.00
21658;BME280;10990;48.174;9.782;2022-12-18T21:04:06;94470.00;;;-4.71;100.00